Time;durP1;ratioP1;P1;durP2;ratioP2;P2;SDS_P1;SDS_P2;PMS_P1;PMS_P2;Temp;Humidity;BMP_temperature;BMP_pressure;BME280_temperature;BME280_humidity;BME280_pressure;Samples;Min_cycle;Max_cycle;Signal;HPM_P1;HPM_P2
2023/01/04 05:02:17;;;;;;;1999.90;999.90;;;5.50;99.90;;;;;;6365890;22;20481;-71
2023/01/04 05:04:42;;;;;;;1999.90;999.90;;;5.50;99.90;;;;;;6376583;22;20064;-71
2023/01/04 05:07:08;;;;;;;1999.90;999.90;;;5.50;99.90;;;;;;6376875;22;19999;-71
2023/01/04 05:09:33;;;;;;;1999.90;999.90;;;5.50;99.90;;;;;;6376890;22;20014;-72
2023/01/04 05:14:43;;;;;;;1999.90;999.90;;;5.60;99.90;;;;;;6377506;22;20003;-72
2023/01/04 05:17:08;;;;;;;1999.90;999.90;;;5.60;99.90;;;;;;6376558;22;20011;-72
2023/01/04 05:19:34;;;;;;;1999.90;999.90;;;5.60;99.90;;;;;;6376729;22;20426;-73
2023/01/04 05:21:59;;;;;;;1999.90;999.90;;;5.60;99.90;;;;;;6348552;22;20446;-74
2023/01/04 05:24:25;;;;;;;1999.90;999.90;;;5.60;99.90;;;;;;6376702;22;20014;-74
2023/01/04 05:26:50;;;;;;;1999.90;999.90;;;5.60;99.90;;;;;;6376456;22;20014;-74
2023/01/04 05:32:00;;;;;;;1999.90;999.90;;;5.70;99.90;;;;;;6376613;22;20019;-74
2023/01/04 05:34:25;;;;;;;1999.90;999.90;;;5.60;99.90;;;;;;6376666;22;20069;-74
2023/01/04 05:36:51;;;;;;;1999.90;999.90;;;5.60;99.90;;;;;;6376488;22;20086;-74
2023/01/04 05:39:16;;;;;;;1999.90;999.90;;;5.70;99.90;;;;;;6376925;22;20010;-74
2023/01/04 05:44:26;;;;;;;1999.90;999.90;;;5.70;99.90;;;;;;6376678;22;20007;-74
2023/01/04 05:46:51;;;;;;;1999.90;999.90;;;5.80;99.90;;;;;;6349735;22;20007;-74
2023/01/04 05:49:17;;;;;;;1999.90;999.90;;;5.80;99.90;;;;;;6378431;22;20003;-74
2023/01/04 05:51:42;;;;;;;1999.90;999.90;;;5.80;99.90;;;;;;6377652;22;20011;-74
2023/01/04 05:54:08;;;;;;;1999.90;999.90;;;5.80;99.90;;;;;;6377738;22;20354;-74
2023/01/04 05:56:33;;;;;;;1999.90;999.90;;;5.80;99.90;;;;;;6377947;22;20003;-74
2023/01/04 05:58:59;;;;;;;1999.90;999.90;;;5.80;99.90;;;;;;6378084;22;20007;-74
2023/01/04 06:01:24;;;;;;;1999.90;999.90;;;5.80;99.90;;;;;;6377345;22;20071;-74
2023/01/04 06:03:50;;;;;;;1999.90;999.90;;;5.80;99.90;;;;;;6377954;22;20006;-74
2023/01/04 06:06:15;;;;;;;1999.90;999.90;;;5.80;99.90;;;;;;6377818;22;20300;-74
2023/01/04 06:08:41;;;;;;;1999.90;999.90;;;5.90;99.90;;;;;;6378059;22;20011;-74
2023/01/04 06:11:06;;;;;;;1999.90;999.90;;;5.90;99.90;;;;;;6377807;22;20377;-74
2023/01/04 06:13:32;;;;;;;1999.90;999.90;;;6.00;99.90;;;;;;6377683;22;20507;-74
2023/01/04 06:15:57;;;;;;;1999.90;999.90;;;6.00;99.90;;;;;;6377672;22;20003;-74
2023/01/04 06:18:23;;;;;;;1999.90;999.90;;;6.00;99.90;;;;;;6378098;22;20060;-74
2023/01/04 06:20:50;;;;;;;1999.90;999.90;;;6.10;99.90;;;;;;6349822;22;20009;-74
2023/01/04 06:23:15;;;;;;;1999.90;999.90;;;6.10;99.90;;;;;;6377938;22;20077;-74
2023/01/04 06:25:42;;;;;;;1999.90;999.90;;;6.20;99.90;;;;;;6377658;22;20101;-74
2023/01/04 06:28:07;;;;;;;1999.90;999.90;;;6.20;99.90;;;;;;6377815;22;20010;-74
2023/01/04 06:30:33;;;;;;;1999.90;999.90;;;6.20;99.90;;;;;;6377517;22;20010;-74
2023/01/04 06:32:59;;;;;;;1999.90;999.90;;;6.20;99.90;;;;;;6377885;22;20057;-74
2023/01/04 06:35:25;;;;;;;1999.90;999.90;;;6.30;99.90;;;;;;6377445;22;20057;-74
2023/01/04 06:37:50;;;;;;;1999.90;999.90;;;6.30;99.90;;;;;;6377662;22;20392;-74
2023/01/04 06:40:16;;;;;;;1999.90;999.90;;;6.30;99.90;;;;;;6377635;22;20003;-74
2023/01/04 06:42:44;;;;;;;1999.90;999.90;;;6.30;99.90;;;;;;6377769;22;20010;-74
2023/01/04 06:45:11;;;;;;;1999.90;999.90;;;6.30;99.90;;;;;;6377847;22;20002;-74
2023/01/04 06:47:36;;;;;;;1999.90;999.90;;;6.30;99.90;;;;;;6377703;22;20018;-74
2023/01/04 06:50:03;;;;;;;1999.90;999.90;;;6.30;99.90;;;;;;6349690;22;20456;-74
2023/01/04 06:52:29;;;;;;;1999.90;999.90;;;6.30;99.90;;;;;;6377283;22;20079;-74
2023/01/04 06:54:54;;;;;;;1999.90;999.90;;;6.40;99.90;;;;;;6349551;22;20422;-74
2023/01/04 06:57:20;;;;;;;1999.90;999.90;;;6.40;99.90;;;;;;6377175;22;20010;-74
2023/01/04 06:59:45;;;;;;;1999.90;999.90;;;6.40;99.90;;;;;;6377764;22;20081;-74
2023/01/04 07:02:15;;;;;;;1999.90;999.90;;;6.40;99.90;;;;;;6377421;22;20038;-74
2023/01/04 07:04:41;;;;;;;1999.90;999.90;;;6.50;99.90;;;;;;6349523;22;20011;-74
2023/01/04 07:07:09;;;;;;;1999.90;999.90;;;6.50;99.90;;;;;;6349478;22;20013;-74
2023/01/04 07:09:35;;;;;;;1999.90;999.90;;;6.50;99.90;;;;;;6377579;22;20007;-74
2023/01/04 07:12:01;;;;;;;1999.90;999.90;;;6.40;99.90;;;;;;6377434;22;20376;-74
2023/01/04 07:14:26;;;;;;;1999.90;999.90;;;6.40;99.90;;;;;;6377457;22;20011;-74
2023/01/04 07:16:52;;;;;;;1999.90;999.90;;;6.50;99.90;;;;;;6377586;22;20007;-74
2023/01/04 07:19:17;;;;;;;1999.90;999.90;;;6.40;99.90;;;;;;6349469;22;20346;-74
2023/01/04 07:21:43;;;;;;;1999.90;999.90;;;6.40;99.90;;;;;;6377356;22;20330;-74
2023/01/04 07:24:09;;;;;;;1999.90;999.90;;;6.40;99.90;;;;;;6377348;22;20003;-74
2023/01/04 07:26:34;;;;;;;1999.90;999.90;;;6.20;99.90;;;;;;6377439;22;20014;-74
2023/01/04 07:29:18;;;;;;;1999.90;999.90;;;6.10;99.90;;;;;;6377611;22;20078;-74
2023/01/04 07:31:47;;;;;;;1999.90;999.90;;;6.00;99.90;;;;;;6377185;22;20002;-74
2023/01/04 07:34:14;;;;;;;1999.90;999.90;;;5.90;99.90;;;;;;6377490;22;20060;-74
2023/01/04 07:36:39;;;;;;;1999.90;999.90;;;5.90;99.90;;;;;;6377229;22;20398;-74
2023/01/04 07:39:06;;;;;;;1999.90;999.90;;;5.80;99.90;;;;;;6349416;22;20017;-74
2023/01/04 07:41:32;;;;;;;1999.90;999.90;;;5.80;99.90;;;;;;6377395;22;20037;-74
2023/01/04 07:44:00;;;;;;;1999.90;999.90;;;5.80;99.90;;;;;;6377541;22;20080;-74
2023/01/04 07:46:26;;;;;;;1999.90;999.90;;;5.80;99.90;;;;;;6377423;22;20007;-74
2023/01/04 07:48:52;;;;;;;1999.90;999.90;;;5.70;99.90;;;;;;6377692;22;20003;-74
2023/01/04 07:51:17;;;;;;;1999.90;999.90;;;5.70;99.90;;;;;;6349112;22;20460;-74
2023/01/04 07:53:43;;;;;;;1999.90;999.90;;;5.70;99.90;;;;;;6377406;22;20064;-74
2023/01/04 07:56:08;;;;;;;1999.90;999.90;;;5.70;99.90;;;;;;6377159;22;20495;-74
2023/01/04 07:58:34;;;;;;;1999.90;999.90;;;5.80;99.90;;;;;;6377309;22;20003;-74
2023/01/04 08:01:12;;;;;;;1999.90;999.90;;;5.70;99.90;;;;;;6377015;22;20006;-74
2023/01/04 08:03:38;;;;;;;1999.90;999.90;;;5.70;99.90;;;;;;6374335;22;20468;-74
2023/01/04 08:06:09;;;;;;;1999.90;999.90;;;5.80;99.90;;;;;;6348823;22;20003;-74
2023/01/04 08:08:35;;;;;;;1999.90;999.90;;;5.70;99.90;;;;;;6377368;22;20084;-74
2023/01/04 08:11:05;;;;;;;1999.90;999.90;;;5.80;99.90;;;;;;6377301;22;19999;-74
2023/01/04 08:13:31;;;;;;;1999.90;999.90;;;5.80;99.90;;;;;;6377344;22;20010;-75
2023/01/04 08:15:57;;;;;;;1999.90;999.90;;;5.80;99.90;;;;;;6376547;22;20434;-75
2023/01/04 08:18:23;;;;;;;1999.90;999.90;;;5.80;99.90;;;;;;6377110;22;20011;-75
2023/01/04 08:20:49;;;;;;;1999.90;999.90;;;5.90;99.90;;;;;;6348840;22;20056;-75
2023/01/04 08:23:15;;;;;;;1999.90;999.90;;;5.90;99.90;;;;;;6377119;22;20003;-75
2023/01/04 08:25:40;;;;;;;1999.90;999.90;;;5.90;99.90;;;;;;6377071;22;20010;-74
2023/01/04 08:28:06;;;;;;;1999.90;999.90;;;6.00;99.90;;;;;;6376840;22;20021;-74
2023/01/04 08:30:31;;;;;;;1999.90;999.90;;;6.00;99.90;;;;;;6348800;22;20339;-74
2023/01/04 08:32:57;;;;;;;1999.90;999.90;;;6.00;99.90;;;;;;6377329;22;20015;-74
2023/01/04 08:35:22;;;;;;;1999.90;999.90;;;6.00;99.90;;;;;;6376977;22;20472;-74
2023/01/04 08:37:48;;;;;;;1999.90;999.90;;;6.10;99.90;;;;;;6348688;22;20010;-74
2023/01/04 08:40:14;;;;;;;1999.90;999.90;;;6.10;99.90;;;;;;6376585;22;20332;-74
2023/01/04 08:42:39;;;;;;;1999.90;999.90;;;6.10;99.90;;;;;;6376845;22;20391;-74
2023/01/04 08:45:05;;;;;;;1999.90;999.90;;;6.20;99.90;;;;;;6376918;22;20010;-74
2023/01/04 08:47:31;;;;;;;1999.90;999.90;;;6.30;99.90;;;;;;6376916;22;20390;-74
2023/01/04 08:49:58;;;;;;;1999.90;999.90;;;6.40;99.90;;;;;;6377467;22;20060;-74
2023/01/04 08:52:24;;;;;;;1999.90;999.90;;;6.40;99.90;;;;;;6375750;22;20011;-74
2023/01/04 08:54:49;;;;;;;1999.90;999.90;;;6.40;99.90;;;;;;6376969;22;20082;-74
2023/01/04 08:57:16;;;;;;;1999.90;999.90;;;6.40;99.90;;;;;;6376765;22;20384;-74
2023/01/04 08:59:41;;;;;;;1999.90;999.90;;;6.50;99.90;;;;;;6376969;22;20064;-74
2023/01/04 09:02:33;;;;;;;1999.90;999.90;;;6.50;99.90;;;;;;6376467;22;20060;-74
2023/01/04 09:05:01;;;;;;;1999.90;999.90;;;6.50;99.90;;;;;;6369209;22;20007;-74
2023/01/04 09:07:30;;;;;;;1999.90;999.90;;;6.50;99.90;;;;;;6348201;22;20007;-75
2023/01/04 09:09:56;;;;;;;1999.90;999.90;;;6.50;99.90;;;;;;6376876;22;20019;-75
2023/01/04 09:12:23;;;;;;;1999.90;999.90;;;6.60;99.90;;;;;;6376094;22;20050;-75
2023/01/04 09:14:48;;;;;;;1999.90;999.90;;;6.60;99.90;;;;;;6373187;22;20010;-74
2023/01/04 09:17:14;;;;;;;1999.90;999.90;;;6.60;99.90;;;;;;6375758;22;20385;-75
2023/01/04 09:19:40;;;;;;;1999.90;999.90;;;6.70;99.90;;;;;;6376245;22;20033;-75
2023/01/04 09:22:05;;;;;;;1999.90;999.90;;;6.70;99.90;;;;;;6349035;22;20084;-75
2023/01/04 09:24:34;;;;;;;1999.90;999.90;;;6.70;99.90;;;;;;6376781;22;20007;-75
2023/01/04 09:27:00;;;;;;;1999.90;999.90;;;6.80;99.90;;;;;;6376995;22;20018;-75
2023/01/04 09:29:26;;;;;;;1999.90;999.90;;;6.80;99.90;;;;;;6377560;22;20486;-75
2023/01/04 09:31:52;;;;;;;1999.90;999.90;;;6.90;99.90;;;;;;6349122;22;20003;-75
2023/01/04 09:34:18;;;;;;;1999.90;999.90;;;6.90;99.90;;;;;;6376814;22;20887;-75
2023/01/04 09:36:45;;;;;;;1999.90;999.90;;;7.00;99.90;;;;;;6377189;22;20032;-75
2023/01/04 09:39:11;;;;;;;1999.90;999.90;;;7.00;99.90;;;;;;6377639;22;20010;-75
2023/01/04 09:41:56;;;;;;;1999.90;999.90;;;7.10;99.90;;;;;;6377259;22;20006;-75
2023/01/04 09:44:40;;;;;;;1999.90;999.90;;;7.10;99.90;;;;;;6377215;22;20003;-75
2023/01/04 09:47:15;;;;;;;1999.90;999.90;;;7.10;99.90;;;;;;6376535;22;20507;-75
2023/01/04 09:49:51;;;;;;;1999.90;999.90;;;7.20;99.90;;;;;;6349388;22;20010;-75
2023/01/04 09:52:38;;;;;;;1999.90;999.90;;;7.20;99.90;;;;;;6377051;22;20457;-75
2023/01/04 09:55:12;;;;;;;1999.90;999.90;;;7.20;99.90;;;;;;6377018;22;20082;-75
2023/01/04 09:57:51;;;;;;;1999.90;999.90;;;7.30;99.90;;;;;;6377043;22;20821;-75
2023/01/04 10:00:24;;;;;;;1999.90;999.90;;;7.40;99.90;;;;;;6377157;22;19998;-75
2023/01/04 10:03:12;;;;;;;1999.90;999.90;;;7.50;99.90;;;;;;6349249;22;20014;-75
2023/01/04 10:05:39;;;;;;;1999.90;999.90;;;7.60;99.90;;;;;;6376360;22;20029;-75
2023/01/04 10:08:14;;;;;;;1999.90;999.90;;;7.70;99.90;;;;;;6348822;22;20038;-75
2023/01/04 10:10:48;;;;;;;1999.90;999.90;;;7.80;99.90;;;;;;6376810;22;19999;-75
2023/01/04 10:13:26;;;;;;;1999.90;999.90;;;7.90;99.90;;;;;;6377219;22;20015;-75
2023/01/04 10:16:15;;;;;;;1999.90;999.90;;;7.90;99.90;;;;;;6377322;22;19998;-75
2023/01/04 10:19:10;;;;;;;1999.90;999.90;;;7.90;99.90;;;;;;6377163;22;20079;-75
2023/01/04 10:21:55;;;;;;;1999.90;999.90;;;8.10;99.90;;;;;;6377172;22;20023;-75
2023/01/04 10:24:40;;;;;;;1999.90;999.90;;;8.10;99.90;;;;;;6377079;22;20007;-74
2023/01/04 10:27:20;;;;;;;1999.90;999.90;;;8.10;99.90;;;;;;6376753;22;20072;-74
2023/01/04 10:30:04;;;;;;;1999.90;999.90;;;8.10;99.90;;;;;;6377273;22;20010;-74
2023/01/04 10:32:38;;;;;;;1999.90;999.90;;;8.10;99.90;;;;;;6376097;22;20013;-74
2023/01/04 10:35:24;;;;;;;1999.90;999.90;;;8.30;99.90;;;;;;6376861;22;20434;-75
2023/01/04 10:37:58;;;;;;;1999.90;999.90;;;8.30;99.90;;;;;;6376705;22;20480;-75
2023/01/04 10:40:26;;;;;;;1999.90;999.90;;;8.40;99.90;;;;;;6376918;22;20007;-74
2023/01/04 10:43:15;;;;;;;1999.90;999.90;;;8.40;99.90;;;;;;6377180;22;20014;-74
2023/01/04 10:45:45;;;;;;;1999.90;999.90;;;8.50;99.90;;;;;;6376877;22;20002;-74
2023/01/04 10:48:19;;;;;;;1999.90;999.90;;;8.50;99.90;;;;;;6376875;22;20319;-75
2023/01/04 10:50:56;;;;;;;1999.90;999.90;;;8.60;99.90;;;;;;6376706;22;20454;-75
2023/01/04 10:53:27;;;;;;;1999.90;999.90;;;8.70;99.90;;;;;;6377155;22;20007;-75
2023/01/04 10:56:22;;;;;;;1999.90;999.90;;;8.70;99.90;;;;;;6377402;22;20076;-75
2023/01/04 10:58:51;;;;;;;1999.90;999.90;;;8.80;99.90;;;;;;6377590;22;20010;-75
2023/01/04 11:01:35;;;;;;;1999.90;999.90;;;8.90;99.90;;;;;;6376648;22;20065;-75
2023/01/04 11:04:07;;;;;;;1999.90;999.90;;;9.00;99.90;;;;;;6348941;22;20007;-75
2023/01/04 11:06:52;;;;;;;1999.90;999.90;;;9.10;99.90;;;;;;6377088;22;20512;-75
2023/01/04 11:09:29;;;;;;;1999.90;999.90;;;9.10;99.90;;;;;;6377258;22;20003;-74
2023/01/04 11:11:56;;;;;;;1999.90;999.90;;;9.00;99.90;;;;;;6376908;22;20465;-74
2023/01/04 11:14:24;;;;;;;1999.90;999.90;;;9.00;99.90;;;;;;6376706;22;20011;-75
2023/01/04 11:16:55;;;;;;;1999.90;999.90;;;9.00;99.90;;;;;;6376892;22;20010;-75
2023/01/04 11:19:20;;;;;;;1999.90;999.90;;;9.10;99.90;;;;;;6377035;22;20010;-74
2023/01/04 11:22:19;;;;;;;1999.90;999.90;;;9.20;99.90;;;;;;6375653;22;20003;-74
2023/01/04 11:24:49;;;;;;;1999.90;999.90;;;9.20;99.90;;;;;;6375994;22;20014;-74
2023/01/04 11:27:20;;;;;;;1999.90;999.90;;;9.30;99.90;;;;;;6348223;22;20454;-74
2023/01/04 11:29:53;;;;;;;1999.90;999.90;;;9.20;99.90;;;;;;6377046;22;20769;-74
2023/01/04 11:32:41;;;;;;;1999.90;999.90;;;9.20;99.90;;;;;;6376623;22;20442;-74
2023/01/04 11:35:06;;;;;;;1999.90;999.90;;;9.20;99.90;;;;;;6376545;22;20069;-74
2023/01/04 11:37:37;;;;;;;1999.90;999.90;;;9.20;99.90;;;;;;6348357;22;20073;-74
2023/01/04 11:40:23;;;;;;;1999.90;999.90;;;9.20;99.90;;;;;;6348589;22;20275;-74
2023/01/04 11:43:17;;;;;;;1999.90;999.90;;;9.20;99.90;;;;;;6374267;22;20014;-74
2023/01/04 11:45:56;;;;;;;1999.90;999.90;;;9.20;99.90;;;;;;6376883;22;20003;-74
2023/01/04 11:48:38;;;;;;;1999.90;999.90;;;9.20;99.90;;;;;;6376727;22;20003;-74
2023/01/04 11:51:14;;;;;;;1999.90;999.90;;;9.00;99.90;;;;;;6376517;22;20081;-74
2023/01/04 11:53:39;;;;;;;1999.90;999.90;;;9.10;99.90;;;;;;6376475;22;20022;-74
2023/01/04 11:56:13;;;;;;;1999.90;999.90;;;9.10;99.90;;;;;;6376433;22;20033;-75
2023/01/04 11:58:40;;;;;;;1999.90;999.90;;;9.10;99.90;;;;;;6376462;22;20443;-74
2023/01/04 12:01:19;;;;;;;1999.90;999.90;;;9.10;99.90;;;;;;6376637;22;20006;-75
2023/01/04 12:03:45;;;;;;;1999.90;999.90;;;9.00;99.90;;;;;;6376847;22;20015;-74
2023/01/04 12:06:39;;;;;;;1999.90;999.90;;;8.90;99.90;;;;;;6348253;22;20434;-75
2023/01/04 12:09:04;;;;;;;1999.90;999.90;;;8.70;99.90;;;;;;6315170;22;20472;-74
2023/01/04 12:11:38;;;;;;;1999.90;999.90;;;8.70;99.90;;;;;;6376332;22;20030;-74
2023/01/04 12:14:33;;;;;;;1999.90;999.90;;;8.70;99.90;;;;;;6376047;22;20026;-74
2023/01/04 12:17:04;;;;;;;1999.90;999.90;;;8.70;99.90;;;;;;6376206;22;20382;-74
2023/01/04 12:19:30;;;;;;;1999.90;999.90;;;8.60;99.90;;;;;;6376517;22;20003;-74
2023/01/04 12:22:03;;;;;;;1999.90;999.90;;;8.70;99.90;;;;;;6376651;22;20010;-74
2023/01/04 12:24:33;;;;;;;1999.90;999.90;;;8.70;99.90;;;;;;6347778;22;20018;-74
2023/01/04 12:27:00;;;;;;;1999.90;999.90;;;8.70;99.90;;;;;;6375991;22;20003;-74
2023/01/04 12:29:33;;;;;;;1999.90;999.90;;;8.70;99.90;;;;;;6376748;22;20007;-74
2023/01/04 12:32:11;;;;;;;1999.90;999.90;;;8.80;99.90;;;;;;6376263;22;20450;-74
2023/01/04 12:34:36;;;;;;;1999.90;999.90;;;8.80;99.90;;;;;;6376158;22;20412;-74
2023/01/04 12:37:06;;;;;;;1999.90;999.90;;;8.80;99.90;;;;;;6347359;22;20090;-71
2023/01/04 12:39:43;;;;;;;1999.90;999.90;;;8.80;99.90;;;;;;6372415;22;20420;-76
2023/01/04 12:42:23;;;;;;;1999.90;999.90;;;8.90;99.90;;;;;;6375522;22;20002;-76
2023/01/04 13:31:25;;;;;;;1999.90;999.90;;;9.30;99.90;;;;;;6331359;22;20016;-71
2023/01/04 13:33:50;;;;;;;1999.90;999.90;;;9.40;99.90;;;;;;6339460;22;20084;-72
2023/01/04 13:36:16;;;;;;;1999.90;999.90;;;9.40;99.90;;;;;;6339741;22;20018;-71
2023/01/04 13:38:41;;;;;;;1999.90;999.90;;;9.50;99.90;;;;;;6396962;22;20011;-72
2023/01/04 13:41:20;;;;;;;1999.90;999.90;;;9.50;99.90;;;;;;6357586;22;20019;-72
2023/01/04 13:43:59;;;;;;;1999.90;999.90;;;9.60;99.90;;;;;;6361372;22;20025;-75
2023/01/04 13:46:26;;;;;;;1999.90;999.90;;;9.60;99.90;;;;;;6310609;22;20055;-75
2023/01/04 13:48:56;;;;;;;1999.90;999.90;;;9.70;99.90;;;;;;6284625;22;20469;-75
2023/01/04 13:51:25;;;;;;;1999.90;999.90;;;9.70;99.90;;;;;;6253826;22;20403;-73
2023/01/04 14:09:29;;;;;;;1999.90;999.90;;;9.80;99.90;;;;;;5174474;27;20503;-75
2023/01/04 14:12:00;;;;;;;1999.90;999.90;;;9.90;99.90;;;;;;5134575;27;20039;-74
2023/01/04 14:14:45;;;;;;;1999.90;999.90;;;9.90;99.90;;;;;;5130078;27;20040;-74
2023/01/04 14:17:15;;;;;;;1999.90;999.90;;;9.90;99.90;;;;;;5064003;28;20077;-74
2023/01/04 14:20:00;;;;;;;1999.90;999.90;;;10.00;99.90;;;;;;5038456;28;20523;-74
2023/01/04 14:22:32;;;;;;;1999.90;999.90;;;10.10;99.90;;;;;;5016632;23;20072;-78
2023/01/04 14:24:59;;;;;;;1999.90;999.90;;;10.10;99.90;;;;;;4907737;28;20048;-77
2023/01/04 14:27:41;;;;;;;1999.90;999.90;;;10.20;99.90;;;;;;4815160;29;20054;-77
2023/01/04 14:30:19;;;;;;;1999.90;999.90;;;10.20;99.90;;;;;;4764885;29;20149;-78
2023/01/04 14:34:35;;;;;;;1999.90;999.90;;;10.20;99.90;;;;;;5191128;27;20756;-77
2023/01/04 14:37:03;;;;;;;1999.90;999.90;;;10.20;99.90;;;;;;5183032;27;20411;-77
2023/01/04 14:39:31;;;;;;;1999.90;999.90;;;10.20;99.90;;;;;;5180641;27;20035;-78
2023/01/04 14:41:58;;;;;;;1999.90;999.90;;;10.20;99.90;;;;;;5144043;27;20040;-77
2023/01/04 14:44:27;;;;;;;1999.90;999.90;;;10.10;99.90;;;;;;5076298;28;20600;-80
2023/01/04 14:46:57;;;;;;;1999.90;999.90;;;10.10;99.90;;;;;;5036170;28;20131;-77
2023/01/04 14:49:25;;;;;;;1999.90;999.90;;;10.10;99.90;;;;;;4939905;28;20044;-78
2023/01/04 14:52:02;;;;;;;1999.90;999.90;;;10.00;99.90;;;;;;4925487;28;20108;-77
2023/01/04 14:54:28;;;;;;;1999.90;999.90;;;10.00;99.90;;;;;;4844609;29;39260;-78
2023/01/04 14:56:55;;;;;;;1999.90;999.90;;;9.90;99.90;;;;;;4493596;30;28861;-77
2023/01/04 14:59:22;;;;;;;1999.90;999.90;;;9.90;99.90;;;;;;4309813;32;20058;-78
2023/01/04 15:01:49;;;;;;;1999.90;999.90;;;9.90;99.90;;;;;;4187163;33;20152;-78
2023/01/04 15:04:14;;;;;;;1999.90;999.90;;;9.90;99.90;;;;;;4187034;34;20484;-77
2023/01/04 15:06:49;;;;;;;1999.90;999.90;;;9.90;99.90;;;;;;4187898;34;20154;-78
2023/01/04 15:09:14;;;;;;;1999.90;999.90;;;9.90;99.90;;;;;;4187957;34;20503;-77
2023/01/04 15:11:40;;;;;;;1999.90;999.90;;;9.90;99.90;;;;;;4187712;34;20065;-77
2023/01/04 15:14:05;;;;;;;1999.90;999.90;;;9.80;99.90;;;;;;4187458;34;20551;-77
2023/01/04 15:16:31;;;;;;;1999.90;999.90;;;9.80;99.90;;;;;;4187114;34;20432;-78
2023/01/04 15:18:56;;;;;;;1999.90;999.90;;;9.80;99.90;;;;;;4188102;34;20061;-77
2023/01/04 15:21:22;;;;;;;1999.90;999.90;;;9.70;99.90;;;;;;4198080;34;20084;-77
2023/01/04 15:23:47;;;;;;;1999.90;999.90;;;9.80;99.90;;;;;;4187328;34;20057;-78
2023/01/04 15:26:14;;;;;;;1999.90;999.90;;;9.80;99.90;;;;;;4187650;34;20092;-78
2023/01/04 15:28:40;;;;;;;1999.90;999.90;;;9.70;99.90;;;;;;4187007;34;20067;-78
2023/01/04 15:31:11;;;;;;;1999.90;999.90;;;9.70;99.90;;;;;;4186643;34;21499;-77
2023/01/04 15:33:37;;;;;;;1999.90;999.90;;;9.60;99.90;;;;;;4187083;34;20083;-78
2023/01/04 15:36:06;;;;;;;1999.90;999.90;;;9.50;99.90;;;;;;4187453;34;20058;-78
2023/01/04 15:38:32;;;;;;;1999.90;999.90;;;9.60;99.90;;;;;;4187244;34;20544;-77
2023/01/04 15:42:57;;;;;;;1999.90;999.90;;;9.50;99.90;;;;;;4187564;34;20065;-77
2023/01/04 15:43:57;;;;;;;1999.90;999.90;;;9.40;99.90;;;;;;4185368;34;20571;-77
2023/01/04 15:46:23;;;;;;;1999.90;999.90;;;9.30;99.90;;;;;;4178124;34;20057;-77
2023/01/04 15:48:48;;;;;;;1999.90;999.90;;;9.20;99.90;;;;;;4177866;34;20064;-78
2023/01/04 15:51:14;;;;;;;1999.90;999.90;;;9.10;99.90;;;;;;4177497;34;20069;-78
2023/01/04 15:53:39;;;;;;;1999.90;999.90;;;9.10;99.90;;;;;;4177529;34;20143;-77
2023/01/04 15:56:07;;;;;;;1999.90;999.90;;;9.00;99.90;;;;;;4275089;32;27761;-77
2023/01/04 15:58:32;;;;;;;1999.90;999.90;;;9.00;99.90;;;;;;4461789;31;20133;-77
2023/01/04 16:00:58;;;;;;;1999.90;999.90;;;9.00;99.90;;;;;;4550455;31;20494;-78
2023/01/04 16:03:23;;;;;;;1999.90;999.90;;;9.00;99.90;;;;;;4568135;31;20050;-77
2023/01/04 16:05:49;;;;;;;1999.90;999.90;;;9.00;99.90;;;;;;4567028;31;20121;-77
2023/01/04 16:08:15;;;;;;;1999.90;999.90;;;9.00;99.90;;;;;;4566838;31;20042;-78
2023/01/04 16:10:40;;;;;;;1999.90;999.90;;;8.90;99.90;;;;;;4551708;31;20471;-77
2023/01/04 16:13:06;;;;;;;1999.90;999.90;;;8.90;99.90;;;;;;4550810;31;20491;-77
2023/01/04 16:15:31;;;;;;;1999.90;999.90;;;8.90;99.90;;;;;;4551039;31;20038;-78
2023/01/04 16:17:57;;;;;;;1999.90;999.90;;;8.90;99.90;;;;;;4554263;31;20118;-79
2023/01/04 16:20:22;;;;;;;1999.90;999.90;;;8.90;99.90;;;;;;4551027;31;20046;-78
2023/01/04 16:22:48;;;;;;;1999.90;999.90;;;9.00;99.90;;;;;;4550849;31;20493;-77
2023/01/04 16:25:13;;;;;;;1999.90;999.90;;;8.90;99.90;;;;;;4550932;31;20045;-79
2023/01/04 16:27:40;;;;;;;1999.90;999.90;;;9.00;99.90;;;;;;4560080;31;20488;-77
2023/01/04 16:30:09;;;;;;;1999.90;999.90;;;9.00;99.90;;;;;;4567094;31;20045;-78
2023/01/04 16:32:35;;;;;;;1999.90;999.90;;;9.10;99.90;;;;;;4565289;31;20145;-77
2023/01/04 16:35:01;;;;;;;1999.90;999.90;;;9.10;99.90;;;;;;4560204;31;20121;-77
2023/01/04 16:37:27;;;;;;;1999.90;999.90;;;9.20;99.90;;;;;;4557369;31;20413;-78
2023/01/04 16:39:53;;;;;;;1999.90;999.90;;;9.20;99.90;;;;;;4566143;31;20050;-78
2023/01/04 16:42:19;;;;;;;1999.90;999.90;;;9.20;99.90;;;;;;4562722;31;20467;-77
2023/01/04 16:44:45;;;;;;;1999.90;999.90;;;9.30;99.90;;;;;;4550576;31;20060;-78
2023/01/04 16:47:11;;;;;;;1999.90;999.90;;;9.20;99.90;;;;;;4550734;31;20568;-77
2023/01/04 16:49:36;;;;;;;1999.90;999.90;;;9.20;99.90;;;;;;4550795;31;20082;-78
2023/01/04 16:52:02;;;;;;;1999.90;999.90;;;9.20;99.90;;;;;;4550248;31;20042;-78
2023/01/04 16:54:27;;;;;;;1999.90;999.90;;;9.20;99.90;;;;;;4559334;31;20064;-78
2023/01/04 16:56:57;;;;;;;1999.90;999.90;;;9.20;99.90;;;;;;4618379;30;20105;-77
2023/01/04 16:59:22;;;;;;;1999.90;999.90;;;9.20;99.90;;;;;;4691267;30;20046;-77
2023/01/04 17:01:49;;;;;;;1999.90;999.90;;;9.20;99.90;;;;;;4770263;29;20040;-77
2023/01/04 17:04:15;;;;;;;1999.90;999.90;;;9.30;99.90;;;;;;4805251;29;20067;-77
2023/01/04 17:06:43;;;;;;;1999.90;999.90;;;9.30;99.90;;;;;;4820939;29;20122;-79
2023/01/04 17:09:13;;;;;;;1999.90;999.90;;;9.50;99.90;;;;;;4807506;29;20108;-79
2023/01/04 17:11:38;;;;;;;1999.90;999.90;;;9.50;99.90;;;;;;4807398;29;20414;-77
2023/01/04 17:14:05;;;;;;;1999.90;999.90;;;9.50;99.90;;;;;;4807668;29;20042;-77
2023/01/04 17:16:31;;;;;;;1999.90;999.90;;;9.50;99.90;;;;;;4807967;29;20035;-77
2023/01/04 17:18:57;;;;;;;1999.90;999.90;;;9.50;99.90;;;;;;4807895;29;20054;-77
2023/01/04 17:21:25;;;;;;;1999.90;999.90;;;9.60;99.90;;;;;;4807445;29;20040;-77
2023/01/04 17:23:53;;;;;;;1999.90;999.90;;;9.50;99.90;;;;;;4820703;29;20043;-77
2023/01/04 17:26:22;;;;;;;1999.90;999.90;;;9.60;99.90;;;;;;4807455;29;20089;-78
2023/01/04 17:28:48;;;;;;;1999.90;999.90;;;9.60;99.90;;;;;;4809490;29;20047;-78
2023/01/04 17:31:17;;;;;;;1999.90;999.90;;;9.60;99.90;;;;;;4809702;29;20040;-79
2023/01/04 17:33:43;;;;;;;1999.90;999.90;;;9.50;99.90;;;;;;4822607;29;20047;-78
2023/01/04 17:36:10;;;;;;;1999.90;999.90;;;9.70;99.90;;;;;;4809952;29;20491;-78
2023/01/04 17:38:36;;;;;;;1999.90;999.90;;;9.60;99.90;;;;;;4809582;29;20042;-79
2023/01/04 17:41:12;;;;;;;1999.90;999.90;;;9.60;99.90;;;;;;4809150;29;20039;-79
2023/01/04 17:43:39;;;;;;;1999.90;999.90;;;9.60;99.90;;;;;;4809776;29;20066;-79
2023/01/04 17:46:09;;;;;;;1999.90;999.90;;;9.60;99.90;;;;;;4807915;29;20129;-78
2023/01/04 17:48:35;;;;;;;1999.90;999.90;;;9.70;99.90;;;;;;4805129;29;20048;-83
2023/01/04 17:51:13;;;;;;;1999.90;999.90;;;9.80;99.90;;;;;;4808666;29;20536;-78
2023/01/04 17:53:39;;;;;;;1999.90;999.90;;;9.80;99.90;;;;;;4808169;29;20053;-78
2023/01/04 17:56:14;;;;;;;1999.90;999.90;;;9.80;99.90;;;;;;4726266;29;1207666;-78
2023/01/04 17:58:39;;;;;;;1999.90;999.90;;;9.90;99.90;;;;;;4858636;29;20294;-77
2023/01/04 18:01:16;;;;;;;1999.90;999.90;;;10.00;99.90;;;;;;4886860;29;20503;-78
2023/01/04 18:03:44;;;;;;;1999.90;999.90;;;10.00;99.90;;;;;;4897061;29;20045;-78
2023/01/04 18:06:10;;;;;;;1999.90;999.90;;;10.00;99.90;;;;;;4896232;29;20041;-77
2023/01/04 18:08:36;;;;;;;1999.90;999.90;;;10.00;99.90;;;;;;4881926;29;20037;-78
2023/01/04 18:11:03;;;;;;;1999.90;999.90;;;10.10;99.90;;;;;;4898587;29;20041;-77
2023/01/04 18:13:29;;;;;;;1999.90;999.90;;;10.20;99.90;;;;;;4882575;29;20112;-83
2023/01/04 18:15:58;;;;;;;1999.90;999.90;;;10.40;99.90;;;;;;4898754;29;20558;-78
2023/01/04 18:18:23;;;;;;;1999.90;999.90;;;10.50;99.90;;;;;;4885074;29;20049;-78
2023/01/04 18:20:49;;;;;;;1999.90;999.90;;;10.70;99.90;;;;;;4883154;29;20038;-78
2023/01/04 18:23:15;;;;;;;1999.90;999.90;;;10.60;99.90;;;;;;4879639;29;20037;-78
2023/01/04 18:25:40;;;;;;;1999.90;999.90;;;10.60;99.90;;;;;;4880408;29;20048;-75
2023/01/04 18:28:06;;;;;;;1999.90;999.90;;;10.60;99.90;;;;;;4883056;29;20042;-76
2023/01/04 18:30:34;;;;;;;1999.90;999.90;;;10.60;99.90;;;;;;4881999;29;20104;-76
2023/01/04 18:32:59;;;;;;;1999.90;999.90;;;10.70;99.90;;;;;;4891426;29;20049;-76